Flight Track Log - Related Links

Times and Time Zones

All times are in EDT time to prevent confusion due to time zone crossing. See the N4446X flight status page for this flight to view local times or setup timezone preferences in your user account.

Time Position Orientation Groundspeed Altitude Reporting Facility
EDT Latitude Longitude Course Direction KTS MPH feet Rate Location/Type
Sun 05:17:09 PM 42.8550 -85.7850 140° Southeast 112 129 3,300  Level Chicago Center
Sun 05:18:11 PM 42.8264 -85.7603 148° Southeast 126 145 4,000 720 Climbing Chicago Center
Sun 05:19:14 PM 42.8033 -85.7192 127° Southeast 134 154 4,800 432 Climbing Chicago Center
Sun 05:20:16 PM 42.7742 -85.6767 133° Southeast 148 170 4,900 48 Climbing Chicago Center
Sun 05:21:00 PM 42.7564 -85.5745 137° Southeast  Level FlightAware Approximate
Sun 05:21:18 PM 42.7336 -85.6250 137° Southeast 163 188 4,900  Level Chicago Center
Sun 05:22:00 PM 42.7259 -85.5368 140° Southeast  Level Estimated
Sun 05:22:20 PM 42.7031 -85.5767 131° Southeast 168 193 4,900  Level Chicago Center
Sun 05:23:22 PM 42.6711 -85.5325 135° Southeast 165 190 4,900  Level Chicago Center
Sun 05:24:25 PM 42.6389 -85.4881 135° Southeast 165 190 4,900 -240 Level Chicago Center
Sun 05:25:27 PM 42.6061 -85.4417 134° Southeast 168 193 4,400 -435 Descending Chicago Center
Sun 05:26:29 PM 42.5656 -85.3908 137° Southeast 167 192 4,000 -242 Descending Chicago Center
Sun 05:27:31 PM 42.5361 -85.3469 132° Southeast 160 184 3,900 -48 Descending Chicago Center
Sun 05:28:33 PM 42.5050 -85.3058 136° Southeast 156 180 3,900  Level Chicago Center
Sun 05:29:35 PM 42.4789 -85.2614 129° Southeast 152 175 3,900  Level Chicago Center
Sun 05:30:37 PM 42.4464 -85.2217 138° Southeast 156 180 3,900  Level Chicago Center
Sun 05:31:39 PM 42.4189 -85.1814 133° Southeast 150 173 3,900 -242 Level Chicago Center
Sun 05:32:41 PM 42.3825 -85.1328 135° Southeast 153 176 3,400 -576 Descending Chicago Center
Sun 05:33:44 PM 42.3506 -85.0892 135° Southeast 160 184 2,700 -480 Descending Chicago Center
Sun 05:34:46 PM 42.3233 -85.0514 134° Southeast 157 181 2,400 -194 Descending Chicago Center
Sun 05:35:48 PM 42.2969 -85.0139 134° Southeast 149 171 2,300 -145 Descending Chicago Center
Sun 05:36:50 PM 42.2661 -84.9761 138° Southeast 144 166 2,100 -194 Descending Chicago Center

Login

Don't have an account? Register now (free) for customized features, flight alerts, and more!